createdAt,value
2019-04-29T00:01:30.762Z,19.91
2019-04-29T00:03:33.855Z,19.89
2019-04-29T00:05:36.942Z,19.88
2019-04-29T00:07:40.004Z,19.88
2019-04-29T00:09:43.236Z,19.87
2019-04-29T00:11:46.371Z,19.86
2019-04-29T00:13:49.472Z,19.85
2019-04-29T00:15:52.541Z,19.84
2019-04-29T00:17:55.616Z,19.84
2019-04-29T00:19:59.825Z,19.84
2019-04-29T00:22:02.901Z,19.83
2019-04-29T00:24:06.001Z,19.83
2019-04-29T00:26:09.077Z,19.83
2019-04-29T00:28:12.237Z,19.82
2019-04-29T00:30:15.337Z,19.81
2019-04-29T00:32:18.400Z,19.81
2019-04-29T00:34:21.642Z,19.80
2019-04-29T00:36:24.712Z,19.79
2019-04-29T00:38:27.917Z,19.79
2019-04-29T00:40:31.041Z,19.78
2019-04-29T00:42:34.102Z,19.78
2019-04-29T00:44:37.262Z,19.78
2019-04-29T00:46:40.331Z,19.77
2019-04-29T00:48:43.427Z,19.77
2019-04-29T00:50:46.675Z,19.76
2019-04-29T00:52:49.897Z,19.76
2019-04-29T00:54:53.071Z,19.76
2019-04-29T00:56:56.172Z,19.75
2019-04-29T00:58:59.258Z,19.74
2019-04-29T01:01:02.492Z,19.73
2019-04-29T01:03:05.564Z,19.72
2019-04-29T01:05:08.786Z,19.73
2019-04-29T01:07:11.927Z,19.72
2019-04-29T01:09:15.008Z,19.71
2019-04-29T01:11:18.213Z,19.71
2019-04-29T01:13:21.482Z,19.71
2019-04-29T01:15:24.713Z,19.70
2019-04-29T01:17:27.910Z,19.69
2019-04-29T01:19:30.985Z,19.69
2019-04-29T01:21:34.099Z,19.69
2019-04-29T01:23:37.163Z,19.69
2019-04-29T01:25:40.261Z,19.68
2019-04-29T01:27:43.328Z,19.67
2019-04-29T01:29:46.521Z,19.67
2019-04-29T01:31:49.730Z,19.67
2019-04-29T01:33:52.791Z,19.67
2019-04-29T01:35:55.919Z,19.65
2019-04-29T01:37:59.040Z,19.63
2019-04-29T01:40:02.133Z,19.64
2019-04-29T01:42:05.220Z,19.64
2019-04-29T01:44:08.288Z,19.64
2019-04-29T01:46:11.396Z,19.63
2019-04-29T01:48:14.466Z,19.63
2019-04-29T01:50:17.620Z,19.61
2019-04-29T01:52:20.834Z,19.61
2019-04-29T01:54:23.903Z,19.60
2019-04-29T01:56:26.991Z,19.60
2019-04-29T01:58:30.054Z,19.59
2019-04-29T02:00:33.130Z,19.59
2019-04-29T02:02:36.223Z,19.58
2019-04-29T02:04:39.283Z,19.58
2019-04-29T02:06:42.382Z,19.58
2019-04-29T02:08:45.459Z,19.57
2019-04-29T02:10:48.654Z,19.57
2019-04-29T02:12:51.870Z,19.57
2019-04-29T02:14:55.078Z,19.56
2019-04-29T02:16:58.405Z,19.56
2019-04-29T02:19:01.657Z,19.55
2019-04-29T02:21:04.714Z,19.55
2019-04-29T02:23:07.799Z,19.55
2019-04-29T02:25:10.879Z,19.56
2019-04-29T02:27:13.989Z,19.53
2019-04-29T02:29:17.061Z,19.54
2019-04-29T02:31:20.132Z,19.54
2019-04-29T02:33:23.232Z,19.54
2019-04-29T02:35:26.298Z,19.52
2019-04-29T02:37:29.674Z,19.52
2019-04-29T02:39:32.766Z,19.51
2019-04-29T02:41:35.851Z,19.51
2019-04-29T02:43:38.951Z,19.50
2019-04-29T02:45:42.028Z,19.51
2019-04-29T02:47:45.116Z,19.50
2019-04-29T02:49:48.217Z,19.50
2019-04-29T02:51:51.432Z,19.50
2019-04-29T02:53:54.641Z,19.49
2019-04-29T02:55:57.705Z,19.48
2019-04-29T02:58:00.816Z,19.49
2019-04-29T03:00:04.034Z,19.48
2019-04-29T03:02:07.288Z,19.48
2019-04-29T03:04:10.353Z,19.48
2019-04-29T03:06:13.428Z,19.47
2019-04-29T03:08:16.623Z,19.48
2019-04-29T03:10:19.725Z,19.47
2019-04-29T03:12:22.920Z,19.47
2019-04-29T03:14:26.025Z,19.45
2019-04-29T03:16:29.107Z,19.44
2019-04-29T03:18:32.261Z,19.46
2019-04-29T03:20:35.334Z,19.44
2019-04-29T03:22:38.470Z,19.45
2019-04-29T03:24:41.541Z,19.44
2019-04-29T03:26:44.621Z,19.44
2019-04-29T03:28:47.720Z,19.43
2019-04-29T03:30:50.947Z,19.43
2019-04-29T03:32:54.019Z,19.43
2019-04-29T03:34:57.243Z,19.43
2019-04-29T03:37:00.469Z,19.42
2019-04-29T03:39:03.604Z,19.42
2019-04-29T03:41:06.669Z,19.41
2019-04-29T03:43:09.734Z,19.41
2019-04-29T03:45:12.949Z,19.40
2019-04-29T03:47:18.765Z,19.41
2019-04-29T03:49:20.247Z,19.40
2019-04-29T03:51:23.326Z,19.39
2019-04-29T03:53:28.340Z,19.39
2019-04-29T03:55:40.122Z,19.38
2019-04-29T03:57:35.073Z,19.39
2019-04-29T03:59:38.349Z,19.39
2019-04-29T04:01:41.414Z,19.39
2019-04-29T04:03:44.485Z,19.37
2019-04-29T04:05:47.599Z,19.37
2019-04-29T04:07:50.668Z,19.38
2019-04-29T04:09:53.816Z,19.37
2019-04-29T04:11:56.922Z,19.37
2019-04-29T04:13:59.991Z,19.36
2019-04-29T04:16:03.082Z,19.36
2019-04-29T04:18:06.152Z,19.37
2019-04-29T04:20:09.277Z,19.36
2019-04-29T04:22:12.465Z,19.34
2019-04-29T04:24:15.527Z,19.35
2019-04-29T04:26:18.623Z,19.35
2019-04-29T04:28:21.696Z,19.34
2019-04-29T04:30:24.898Z,19.33
2019-04-29T04:32:27.979Z,19.34
2019-04-29T04:34:31.037Z,19.34
2019-04-29T04:36:34.120Z,19.34
2019-04-29T04:38:37.208Z,19.33
2019-04-29T04:40:40.290Z,19.32
2019-04-29T04:42:43.360Z,19.33
2019-04-29T04:44:46.436Z,19.32
2019-04-29T04:46:49.549Z,19.33
2019-04-29T04:48:52.611Z,19.32
2019-04-29T04:50:55.769Z,19.31
2019-04-29T04:52:58.842Z,19.31
2019-04-29T04:55:01.918Z,19.31
2019-04-29T04:57:05.127Z,19.30
2019-04-29T04:59:08.193Z,19.30
2019-04-29T05:01:11.311Z,19.26
2019-04-29T05:03:14.399Z,19.17
2019-04-29T05:05:17.541Z,19.15
2019-04-29T05:07:20.636Z,19.11
2019-04-29T05:09:23.936Z,19.10
2019-04-29T05:11:27.179Z,19.08
2019-04-29T05:13:30.284Z,19.03
2019-04-29T05:15:33.504Z,19.00
2019-04-29T05:17:36.587Z,18.97
2019-04-29T05:19:39.668Z,18.94
2019-04-29T05:21:42.732Z,18.91
2019-04-29T05:23:45.839Z,18.88
2019-04-29T05:25:48.895Z,18.91
2019-04-29T05:27:52.002Z,18.92
2019-04-29T05:29:55.086Z,18.93
2019-04-29T05:31:58.165Z,18.94
2019-04-29T05:34:01.257Z,18.95
2019-04-29T05:36:04.484Z,18.83
2019-04-29T05:38:07.660Z,18.77
2019-04-29T05:40:10.730Z,18.76
2019-04-29T05:42:17.154Z,18.76
2019-04-29T05:44:19.139Z,18.76
2019-04-29T05:46:23.275Z,18.76
2019-04-29T05:48:27.582Z,18.79
2019-04-29T05:50:30.762Z,18.82
2019-04-29T05:52:34.778Z,18.83
2019-04-29T05:54:38.603Z,18.84
2019-04-29T05:56:41.685Z,18.86
2019-04-29T05:58:44.781Z,18.86
2019-04-29T06:00:47.871Z,18.87
2019-04-29T06:02:51.072Z,18.87
2019-04-29T06:04:54.612Z,18.88
2019-04-29T06:06:57.801Z,18.92
2019-04-29T06:09:01.011Z,18.98
2019-04-29T06:11:04.267Z,19.00
2019-04-29T06:13:07.454Z,19.05
2019-04-29T06:15:10.558Z,19.06
2019-04-29T06:17:13.920Z,19.11
2019-04-29T06:19:17.217Z,19.13
2019-04-29T06:21:20.341Z,19.12
2019-04-29T06:23:24.325Z,19.10
2019-04-29T06:25:27.503Z,19.08
2019-04-29T06:27:33.281Z,19.08
2019-04-29T06:29:34.747Z,19.11
2019-04-29T06:31:38.258Z,19.11
2019-04-29T06:33:41.366Z,19.14
2019-04-29T06:35:47.350Z,19.16
2019-04-29T06:37:49.100Z,19.19
2019-04-29T06:39:52.324Z,19.22
2019-04-29T06:41:57.332Z,19.24
2019-04-29T06:44:05.208Z,19.27
2019-04-29T06:46:06.197Z,19.29
2019-04-29T06:48:09.553Z,19.30
2019-04-29T06:50:12.911Z,19.31
2019-04-29T06:52:16.170Z,19.32
2019-04-29T06:54:20.205Z,19.34
2019-04-29T06:56:23.473Z,19.35
2019-04-29T06:58:26.630Z,19.37
2019-04-29T07:00:30.421Z,19.39
2019-04-29T07:02:33.654Z,19.40
2019-04-29T07:04:39.604Z,19.42
2019-04-29T07:06:56.748Z,19.42
2019-04-29T07:08:50.283Z,19.45
2019-04-29T07:11:31.887Z,19.51
2019-04-29T07:13:32.787Z,19.47
2019-04-29T07:15:36.466Z,19.49
2019-04-29T07:17:41.327Z,19.51
2019-04-29T07:19:44.345Z,19.51
2019-04-29T07:21:51.494Z,19.51
2019-04-29T07:23:52.636Z,19.51
2019-04-29T07:25:55.739Z,19.50
2019-04-29T07:27:59.552Z,19.49
2019-04-29T07:30:10.196Z,19.49
2019-04-29T07:32:14.826Z,19.47
2019-04-29T07:34:18.285Z,19.49
2019-04-29T07:36:22.868Z,19.51
2019-04-29T07:38:40.290Z,19.51
2019-04-29T07:40:31.078Z,19.52
2019-04-29T07:42:34.464Z,19.55
2019-04-29T07:44:44.157Z,19.55
2019-04-29T07:46:56.283Z,19.55
2019-04-29T07:49:00.789Z,19.56
2019-04-29T07:50:54.716Z,19.56
2019-04-29T07:52:58.481Z,19.55
2019-04-29T07:55:01.689Z,19.55
2019-04-29T07:57:04.856Z,19.57
2019-04-29T07:59:11.127Z,19.57
2019-04-29T08:01:13.477Z,19.56
2019-04-29T08:03:16.863Z,19.58
2019-04-29T08:05:20.961Z,19.60
2019-04-29T08:07:25.057Z,19.62
2019-04-29T08:09:28.293Z,19.62
2019-04-29T08:11:32.078Z,19.63
2019-04-29T08:13:35.855Z,19.63
2019-04-29T08:15:41.729Z,19.64
2019-04-29T08:17:43.742Z,19.68
2019-04-29T08:19:47.032Z,19.69
2019-04-29T08:21:51.320Z,19.67
2019-04-29T08:23:54.897Z,19.69
2019-04-29T08:26:02.576Z,19.70
2019-04-29T08:28:03.936Z,19.68
2019-04-29T08:30:11.359Z,19.71
2019-04-29T08:32:11.693Z,19.70
2019-04-29T08:34:18.613Z,19.71
2019-04-29T08:36:20.317Z,19.71
2019-04-29T08:38:23.512Z,19.74
2019-04-29T08:40:27.513Z,19.74
2019-04-29T08:42:31.189Z,19.77
2019-04-29T08:44:34.799Z,19.79
2019-04-29T08:46:37.995Z,19.84
2019-04-29T08:48:41.167Z,19.83
2019-04-29T08:50:44.707Z,19.87
2019-04-29T08:52:48.011Z,19.89
2019-04-29T08:54:55.468Z,19.89
2019-04-29T08:57:03.147Z,19.90
2019-04-29T08:59:00.665Z,19.90
2019-04-29T09:01:04.653Z,19.91
2019-04-29T09:03:08.094Z,19.91
2019-04-29T09:05:13.148Z,19.92
2019-04-29T09:07:17.584Z,19.93
2019-04-29T09:09:28.997Z,19.92
2019-04-29T09:11:26.945Z,19.93
2019-04-29T09:13:30.051Z,19.92
2019-04-29T09:15:33.503Z,19.92
2019-04-29T09:17:36.833Z,19.91
2019-04-29T09:19:40.198Z,19.91
2019-04-29T09:21:43.549Z,19.92
2019-04-29T09:23:47.305Z,19.91
2019-04-29T09:26:02.003Z,19.91
2019-04-29T09:27:56.447Z,19.91
2019-04-29T09:30:00.567Z,19.92
2019-04-29T09:32:03.788Z,19.91
2019-04-29T09:34:07.153Z,19.93
2019-04-29T09:36:13.971Z,19.94
2019-04-29T09:38:15.959Z,19.94
2019-04-29T09:40:19.739Z,19.94
2019-04-29T09:42:23.138Z,19.94
2019-04-29T09:44:26.564Z,19.95
2019-04-29T09:46:34.359Z,19.95
2019-04-29T09:48:34.599Z,19.95
2019-04-29T09:50:39.007Z,19.96
2019-04-29T09:52:42.831Z,19.97
2019-04-29T09:54:46.448Z,19.98
2019-04-29T09:56:49.907Z,19.99
2019-04-29T09:58:53.163Z,19.97
2019-04-29T10:00:58.358Z,19.97
2019-04-29T10:03:02.871Z,19.97
2019-04-29T10:05:06.425Z,19.99
2019-04-29T10:07:09.743Z,19.99
2019-04-29T10:09:13.055Z,19.98
2019-04-29T10:11:16.676Z,20.00
2019-04-29T10:13:20.117Z,19.99
2019-04-29T10:15:24.068Z,20.00
2019-04-29T10:17:28.490Z,20.00
2019-04-29T10:19:31.614Z,19.99
2019-04-29T10:21:38.019Z,19.99
2019-04-29T10:23:41.342Z,19.99
2019-04-29T10:25:44.691Z,20.01
2019-04-29T10:27:47.897Z,19.99
2019-04-29T10:29:55.372Z,19.99
2019-04-29T10:31:55.831Z,19.98
2019-04-29T10:33:59.448Z,19.99
2019-04-29T10:36:02.942Z,19.97
2019-04-29T10:38:06.045Z,20.01
2019-04-29T10:40:11.280Z,20.00
2019-04-29T10:42:13.738Z,19.98
2019-04-29T10:44:16.935Z,19.97
2019-04-29T10:46:20.221Z,19.97
2019-04-29T10:48:23.678Z,19.97
2019-04-29T10:50:27.451Z,19.99
2019-04-29T10:52:34.431Z,19.97
2019-04-29T10:54:35.889Z,19.99
2019-04-29T10:56:41.041Z,19.99
2019-04-29T10:58:43.966Z,19.98
2019-04-29T11:00:47.222Z,19.97
2019-04-29T11:02:51.131Z,19.97
2019-04-29T11:04:54.850Z,19.97
2019-04-29T11:06:57.982Z,19.98
2019-04-29T11:09:01.459Z,19.97
2019-04-29T11:11:05.690Z,19.97
2019-04-29T11:13:09.176Z,19.96
2019-04-29T11:15:13.924Z,19.98
2019-04-29T11:17:17.434Z,19.98
2019-04-29T11:19:20.666Z,19.98
2019-04-29T11:21:25.087Z,19.97
2019-04-29T11:23:29.257Z,19.99
2019-04-29T11:25:33.281Z,20.00
2019-04-29T11:27:36.530Z,20.00
2019-04-29T11:29:40.040Z,20.01
2019-04-29T11:31:43.152Z,20.00
2019-04-29T11:33:46.365Z,19.98
2019-04-29T11:35:49.506Z,19.98
2019-04-29T11:37:55.373Z,19.98
2019-04-29T11:39:58.245Z,19.98
2019-04-29T11:42:01.684Z,19.98
2019-04-29T11:44:04.936Z,19.98
2019-04-29T11:46:09.920Z,19.97
2019-04-29T11:48:13.045Z,19.96
2019-04-29T11:50:16.370Z,19.96
2019-04-29T11:52:23.626Z,20.01
2019-04-29T11:54:24.732Z,20.01
2019-04-29T11:56:28.092Z,20.01
2019-04-29T11:58:31.358Z,20.00
2019-04-29T12:00:35.012Z,20.01
2019-04-29T12:02:45.403Z,20.01
2019-04-29T12:04:42.735Z,20.08
2019-04-29T12:06:46.417Z,20.09
2019-04-29T12:08:53.196Z,20.09
2019-04-29T12:11:06.711Z,20.08
2019-04-29T12:13:00.490Z,20.14
2019-04-29T12:15:03.724Z,20.15
2019-04-29T12:17:06.989Z,20.18
2019-04-29T12:19:10.344Z,20.20
2019-04-29T12:21:13.579Z,20.23
2019-04-29T12:23:19.335Z,20.24
2019-04-29T12:25:28.984Z,20.23
2019-04-29T12:27:34.195Z,20.24
2019-04-29T12:29:37.546Z,20.26
2019-04-29T12:31:40.781Z,20.25
2019-04-29T12:33:44.226Z,20.29
2019-04-29T12:35:52.102Z,20.28
2019-04-29T12:37:52.101Z,20.27
2019-04-29T12:39:55.441Z,20.27
2019-04-29T12:42:00.650Z,20.26
2019-04-29T12:44:03.434Z,20.25
2019-04-29T12:46:10.142Z,20.24
2019-04-29T12:48:23.962Z,20.25
2019-04-29T12:50:17.421Z,20.31
2019-04-29T12:52:21.678Z,20.29
2019-04-29T12:54:24.924Z,20.28
2019-04-29T12:56:28.012Z,20.26
2019-04-29T12:58:31.245Z,20.24
2019-04-29T13:00:46.783Z,20.24
2019-04-29T13:02:39.315Z,20.24
2019-04-29T13:04:45.235Z,20.27
2019-04-29T13:06:47.425Z,20.27
2019-04-29T13:08:50.666Z,20.31
2019-04-29T13:10:54.248Z,20.36
2019-04-29T13:12:58.237Z,20.39
2019-04-29T13:15:03.243Z,20.44
2019-04-29T13:17:14.474Z,20.45
2019-04-29T13:19:14.482Z,20.45
2019-04-29T13:21:15.329Z,20.45
2019-04-29T13:23:33.609Z,20.46
2019-04-29T13:25:26.721Z,20.49
2019-04-29T13:27:28.595Z,20.45
2019-04-29T13:29:36.102Z,20.48
2019-04-29T13:31:38.791Z,20.49
2019-04-29T13:33:46.037Z,20.51
2019-04-29T13:35:49.707Z,20.46
2019-04-29T13:37:53.295Z,20.46
2019-04-29T13:39:56.840Z,20.50
2019-04-29T13:42:03.037Z,20.51
2019-04-29T13:44:07.347Z,20.53
2019-04-29T13:46:09.380Z,20.53
2019-04-29T13:48:12.696Z,20.54
2019-04-29T13:50:23.613Z,20.54
2019-04-29T13:52:20.670Z,20.56
2019-04-29T13:54:23.891Z,20.55
2019-04-29T13:56:39.433Z,20.55
2019-04-29T13:58:32.134Z,20.53
2019-04-29T14:00:36.647Z,20.53
2019-04-29T14:02:39.935Z,20.52
2019-04-29T14:04:43.176Z,20.52
2019-04-29T14:06:56.528Z,20.54
2019-04-29T14:08:54.055Z,20.52
2019-04-29T14:10:55.750Z,20.53
2019-04-29T14:13:09.897Z,20.55
2019-04-29T14:15:03.213Z,20.55
2019-04-29T14:17:17.421Z,20.53
2019-04-29T14:19:11.396Z,20.53
2019-04-29T14:21:14.671Z,20.52
2019-04-29T14:23:18.673Z,20.53
2019-04-29T14:25:22.180Z,20.53
2019-04-29T14:27:25.669Z,20.51
2019-04-29T14:29:30.289Z,20.52
2019-04-29T14:31:33.830Z,20.50
2019-04-29T14:33:37.198Z,20.41
2019-04-29T14:35:43.900Z,20.32
2019-04-29T14:37:54.883Z,20.31
2019-04-29T14:39:49.872Z,20.35
2019-04-29T14:41:55.436Z,20.35
2019-04-29T14:43:58.105Z,20.41
2019-04-29T14:46:01.597Z,20.48
2019-04-29T14:48:04.649Z,20.51
2019-04-29T14:50:10.722Z,20.54
2019-04-29T14:52:13.123Z,20.54
2019-04-29T14:54:17.022Z,20.53
2019-04-29T14:56:20.253Z,20.52
2019-04-29T14:58:23.469Z,20.51
2019-04-29T15:00:26.970Z,20.48
2019-04-29T15:02:30.519Z,20.46
2019-04-29T15:04:33.621Z,20.44
2019-04-29T15:06:36.955Z,20.43
2019-04-29T15:08:40.115Z,20.44
2019-04-29T15:10:43.360Z,20.43
2019-04-29T15:14:22.968Z,20.46
2019-04-29T15:16:21.684Z,20.42
2019-04-29T15:18:45.425Z,20.40
2019-04-29T15:20:30.285Z,20.41
2019-04-29T15:22:34.049Z,20.40
2019-04-29T15:24:37.274Z,20.40
2019-04-29T15:26:40.746Z,20.40
2019-04-29T15:28:43.964Z,20.40
2019-04-29T15:30:47.360Z,20.39
2019-04-29T15:32:53.002Z,20.39
2019-04-29T15:34:55.268Z,20.39
2019-04-29T15:36:58.540Z,20.40
2019-04-29T15:39:09.767Z,20.39
2019-04-29T15:41:06.147Z,20.39
2019-04-29T15:43:09.903Z,20.38
2019-04-29T15:45:13.159Z,20.39
2019-04-29T15:47:16.309Z,20.34
2019-04-29T15:49:20.198Z,20.31
2019-04-29T15:51:24.016Z,20.29
2019-04-29T15:53:27.263Z,20.26
2019-04-29T15:55:30.492Z,20.25
2019-04-29T15:57:33.578Z,20.23
2019-04-29T15:59:48.476Z,20.19
2019-04-29T16:01:42.171Z,20.16
2019-04-29T16:03:49.844Z,20.14
2019-04-29T16:06:11.137Z,20.12
2019-04-29T16:07:55.650Z,20.10
2019-04-29T16:09:59.698Z,20.08
2019-04-29T16:12:05.097Z,20.07
2019-04-29T16:14:09.859Z,20.04
2019-04-29T16:16:11.983Z,20.04
2019-04-29T16:18:15.175Z,20.04
2019-04-29T16:20:18.825Z,20.05
2019-04-29T16:22:22.278Z,20.03
2019-04-29T16:26:53.220Z,20.01
2019-04-29T16:28:52.363Z,20.00
2019-04-29T16:30:55.569Z,19.99
2019-04-29T16:32:58.680Z,19.97
2019-04-29T16:35:01.772Z,19.96
2019-04-29T16:37:04.901Z,19.96
2019-04-29T16:39:08.329Z,19.98
2019-04-29T16:41:19.110Z,19.98
2019-04-29T16:43:16.330Z,19.98
2019-04-29T16:45:19.497Z,19.99
2019-04-29T16:47:22.682Z,19.99
2019-04-29T16:49:25.784Z,19.98
2019-04-29T16:51:28.872Z,19.97
2019-04-29T16:53:32.105Z,19.94
2019-04-29T16:55:35.792Z,19.95
2019-04-29T16:57:39.764Z,19.92
2019-04-29T16:59:43.888Z,19.92
2019-04-29T17:01:47.078Z,19.91
2019-04-29T17:03:50.308Z,19.91
2019-04-29T17:05:53.929Z,19.90
2019-04-29T17:07:57.013Z,19.89
2019-04-29T17:10:00.099Z,19.87
2019-04-29T17:12:03.214Z,19.86
2019-04-29T17:14:10.110Z,19.85
2019-04-29T17:16:10.902Z,19.83
2019-04-29T17:19:43.204Z,19.89
2019-04-29T17:21:46.269Z,19.85
2019-04-29T17:23:49.475Z,19.87
2019-04-29T17:25:52.674Z,19.87
2019-04-29T17:27:55.777Z,19.87
2019-04-29T17:30:03.928Z,19.89
2019-04-29T17:32:04.120Z,19.90
2019-04-29T17:34:08.397Z,19.92
2019-04-29T17:36:11.915Z,19.93
2019-04-29T17:38:15.179Z,19.94
2019-04-29T17:40:19.477Z,19.94
2019-04-29T17:42:22.907Z,19.96
2019-04-29T17:44:26.275Z,19.97
2019-04-29T17:46:29.494Z,19.99
2019-04-29T17:48:33.225Z,20.00
2019-04-29T17:50:39.251Z,20.02
2019-04-29T17:52:41.094Z,20.01
2019-04-29T17:54:44.996Z,20.03
2019-04-29T17:56:48.162Z,20.03
2019-04-29T17:58:53.866Z,20.05
2019-04-29T18:00:59.388Z,20.06
2019-04-29T18:03:00.931Z,20.07
2019-04-29T18:05:05.622Z,20.09
2019-04-29T18:07:12.172Z,20.11
2019-04-29T18:09:15.741Z,20.10
2019-04-29T18:11:18.741Z,20.11
2019-04-29T18:13:24.623Z,20.11
2019-04-29T18:15:26.061Z,20.12
2019-04-29T18:17:31.150Z,20.15
2019-04-29T18:19:34.809Z,20.19
2019-04-29T18:21:43.490Z,20.19
2019-04-29T18:23:42.746Z,20.20
2019-04-29T18:25:46.118Z,20.19
2019-04-29T18:27:53.532Z,20.20
2019-04-29T18:29:55.092Z,20.20
2019-04-29T18:32:00.522Z,20.21
2019-04-29T18:34:03.163Z,20.21
2019-04-29T18:36:07.079Z,20.22
2019-04-29T18:38:11.931Z,20.26
2019-04-29T18:40:16.064Z,20.24
2019-04-29T18:42:19.960Z,20.24
2019-04-29T18:44:23.048Z,20.23
2019-04-29T18:46:26.177Z,20.24
2019-04-29T18:48:29.289Z,20.24
2019-04-29T18:50:34.212Z,20.23
2019-04-29T18:52:36.826Z,20.24
2019-04-29T18:54:40.131Z,20.25
2019-04-29T18:56:43.238Z,20.24
2019-04-29T18:58:50.379Z,20.22
2019-04-29T19:00:53.917Z,20.21
2019-04-29T19:02:58.403Z,20.19
2019-04-29T19:05:00.741Z,20.14
2019-04-29T19:07:05.410Z,20.14
2019-04-29T19:09:17.798Z,20.18
2019-04-29T19:11:15.172Z,20.18
2019-04-29T19:13:18.268Z,20.17
2019-04-29T19:15:21.632Z,20.17
2019-04-29T19:17:25.792Z,20.17
2019-04-29T19:19:30.880Z,20.18
2019-04-29T19:21:33.244Z,20.21
2019-04-29T19:23:36.327Z,20.20
2019-04-29T19:25:41.587Z,20.21
2019-04-29T19:27:45.895Z,20.25
2019-04-29T19:29:48.992Z,20.25
2019-04-29T19:31:52.160Z,20.26
2019-04-29T19:33:57.348Z,20.28
2019-04-29T19:36:00.231Z,20.29
2019-04-29T19:38:05.138Z,20.30
2019-04-29T19:40:08.379Z,20.31
2019-04-29T19:42:11.894Z,20.33
2019-04-29T19:44:15.531Z,20.34
2019-04-29T19:46:24.108Z,20.37
2019-04-29T19:48:26.974Z,20.38
2019-04-29T19:50:28.006Z,20.37
2019-04-29T19:52:31.901Z,20.38
2019-04-29T19:54:35.777Z,20.37
2019-04-29T19:56:39.637Z,20.38
2019-04-29T19:58:43.060Z,20.37
2019-04-29T20:00:47.534Z,20.38
2019-04-29T20:02:51.629Z,20.38
2019-04-29T20:04:58.992Z,20.37
2019-04-29T20:07:05.828Z,20.37
2019-04-29T20:09:15.999Z,20.38
2019-04-29T20:11:14.714Z,20.37
2019-04-29T20:13:13.230Z,20.37
2019-04-29T20:15:17.105Z,20.37
2019-04-29T20:17:20.958Z,20.36
2019-04-29T20:19:27.151Z,20.36
2019-04-29T20:21:30.836Z,20.37
2019-04-29T20:25:21.935Z,20.38
2019-04-29T20:25:39.053Z,20.37
2019-04-29T20:27:43.443Z,20.37
2019-04-29T20:29:46.892Z,20.37
2019-04-29T20:31:53.255Z,20.35
2019-04-29T20:33:57.964Z,20.35
2019-04-29T20:36:02.184Z,20.34
2019-04-29T20:38:05.376Z,20.31
2019-04-29T20:40:08.066Z,20.31
2019-04-29T20:42:11.733Z,20.33
2019-04-29T20:44:16.236Z,20.34
2019-04-29T20:46:19.855Z,20.34
2019-04-29T20:48:23.123Z,20.34
2019-04-29T20:50:26.468Z,20.34
2019-04-29T20:52:31.069Z,20.33
2019-04-29T20:54:35.451Z,20.33
2019-04-29T20:56:38.889Z,20.32
2019-04-29T20:58:44.340Z,20.33
2019-04-29T21:00:47.143Z,20.32
2019-04-29T21:02:50.430Z,20.33
2019-04-29T21:04:57.780Z,20.32
2019-04-29T21:07:01.981Z,20.32
2019-04-29T21:09:03.334Z,20.32
2019-04-29T21:11:06.889Z,20.31
2019-04-29T21:13:16.362Z,20.30
2019-04-29T21:15:16.295Z,20.29
2019-04-29T21:17:28.511Z,20.29
2019-04-29T21:19:23.277Z,20.25
2019-04-29T21:21:26.389Z,20.25
2019-04-29T21:23:35.401Z,20.22
2019-04-29T21:25:37.155Z,20.21
2019-04-29T21:27:40.277Z,20.21
2019-04-29T21:29:43.538Z,20.19
2019-04-29T21:34:02.874Z,20.18
2019-04-29T21:36:06.095Z,20.14
2019-04-29T21:38:09.168Z,20.12
2019-04-29T21:40:16.834Z,20.11
2019-04-29T21:42:16.992Z,20.08
2019-04-29T21:44:23.696Z,20.08
2019-04-29T21:46:29.115Z,20.07
2019-04-29T21:48:33.617Z,20.05
2019-04-29T21:50:37.902Z,20.04
2019-04-29T21:52:38.445Z,20.03
2019-04-29T21:54:44.516Z,20.01
2019-04-29T21:56:47.813Z,19.99
2019-04-29T21:58:50.186Z,19.99
2019-04-29T22:00:55.917Z,19.98
2019-04-29T22:02:59.015Z,19.95
2019-04-29T22:05:02.132Z,19.94
2019-04-29T22:07:07.961Z,19.93
2019-04-29T22:09:09.444Z,19.93
2019-04-29T22:11:12.542Z,19.92
2019-04-29T22:13:15.623Z,19.90
2019-04-29T22:15:29.760Z,19.88
2019-04-29T22:17:26.327Z,19.87
2019-04-29T22:19:28.158Z,19.86
2019-04-29T22:21:31.331Z,19.85
2019-04-29T22:23:35.288Z,19.84
2019-04-29T22:25:41.130Z,19.84
2019-04-29T22:27:42.682Z,19.83
2019-04-29T22:29:47.527Z,19.82
2019-04-29T22:31:50.024Z,19.83
2019-04-29T22:33:53.093Z,19.81
2019-04-29T22:35:56.185Z,19.80
2019-04-29T22:37:59.301Z,19.79
2019-04-29T22:40:03.092Z,19.79
2019-04-29T22:42:06.612Z,19.77
2019-04-29T22:44:09.928Z,19.76
2019-04-29T22:46:13.028Z,19.76
2019-04-29T22:48:19.557Z,19.75
2019-04-29T22:50:20.438Z,19.75
2019-04-29T22:52:25.578Z,19.74
2019-04-29T22:54:27.856Z,19.73
2019-04-29T22:56:31.098Z,19.72
2019-04-29T22:58:35.086Z,19.72
2019-04-29T23:00:38.337Z,19.70
2019-04-29T23:02:41.926Z,19.70
2019-04-29T23:04:49.065Z,19.68
2019-04-29T23:06:49.344Z,19.68
2019-04-29T23:08:52.436Z,19.67
2019-04-29T23:10:59.747Z,19.66
2019-04-29T23:13:00.107Z,19.66
2019-04-29T23:15:03.175Z,19.66
2019-04-29T23:17:12.045Z,19.63
2019-04-29T23:19:14.048Z,19.61
2019-04-29T23:21:16.515Z,19.63
2019-04-29T23:23:19.679Z,19.60
2019-04-29T23:25:26.666Z,19.59
2019-04-29T23:27:27.010Z,19.58
2019-04-29T23:29:30.100Z,19.57
2019-04-29T23:31:33.193Z,19.56
2019-04-29T23:33:36.294Z,19.55
2019-04-29T23:35:39.997Z,19.55
2019-04-29T23:37:45.808Z,19.54
2019-04-29T23:39:48.413Z,19.53
2019-04-29T23:41:51.504Z,19.52
2019-04-29T23:43:55.581Z,19.51
2019-04-29T23:46:00.581Z,19.51
2019-04-29T23:48:05.512Z,19.51
2019-04-29T23:50:08.367Z,19.50
2019-04-29T23:52:13.328Z,19.49
2019-04-29T23:54:15.665Z,19.49
2019-04-29T23:56:18.802Z,19.48
2019-04-29T23:58:21.892Z,19.49
